Time;durP1;ratioP1;P1;durP2;ratioP2;P2;SDS_P1;SDS_P2;PMS_P1;PMS_P2;Temp;Humidity;BMP_temperature;BMP_pressure;BME280_temperature;BME280_humidity;BME280_pressure;Samples;Min_cycle;Max_cycle;Signal;HPM_P1;HPM_P2
2023/05/27 00:01:44;;;;;;;17.33;6.17;;;7.60;99.90;;;;;;4869815;29;20434;-80
2023/05/27 00:04:13;;;;;;;14.93;5.43;;;7.60;99.90;;;;;;4847933;29;20056;-80
2023/05/27 00:06:39;;;;;;;17.43;5.50;;;7.60;99.90;;;;;;4851445;29;20484;-80
2023/05/27 00:09:05;;;;;;;15.00;5.80;;;7.60;99.90;;;;;;4865298;29;20108;-79
2023/05/27 00:11:32;;;;;;;17.70;5.50;;;7.60;99.90;;;;;;4875082;29;20045;-79
2023/05/27 00:13:58;;;;;;;17.87;5.87;;;7.50;99.90;;;;;;4847099;29;20044;-80
2023/05/27 00:16:25;;;;;;;18.67;5.67;;;7.50;99.90;;;;;;4833991;29;20048;-80
2023/05/27 00:18:53;;;;;;;17.90;5.93;;;7.50;99.90;;;;;;4857009;29;20101;-80
2023/05/27 00:21:19;;;;;;;18.03;6.07;;;7.50;99.90;;;;;;4862536;29;20120;-80
2023/05/27 00:23:48;;;;;;;17.90;5.87;;;7.50;99.90;;;;;;4875140;29;20120;-80
2023/05/27 00:26:14;;;;;;;15.77;5.63;;;7.50;99.90;;;;;;4873034;29;20083;-80
2023/05/27 00:28:41;;;;;;;17.40;5.83;;;7.50;99.90;;;;;;4875707;29;20083;-80
2023/05/27 00:31:07;;;;;;;15.67;5.23;;;7.40;99.90;;;;;;4864090;29;20045;-80
2023/05/27 00:33:33;;;;;;;17.33;5.50;;;7.50;99.90;;;;;;4863747;29;20104;-80
2023/05/27 00:36:03;;;;;;;18.03;5.47;;;7.50;99.90;;;;;;4849378;29;20143;-80
2023/05/27 00:38:30;;;;;;;17.80;5.70;;;7.40;99.90;;;;;;4860526;29;20041;-80
2023/05/27 00:40:59;;;;;;;20.87;6.70;;;7.40;99.90;;;;;;4852345;29;20049;-80
2023/05/27 00:43:30;;;;;;;17.50;5.80;;;7.40;99.90;;;;;;4875706;29;20069;-80
2023/05/27 00:45:59;;;;;;;19.63;6.17;;;7.30;99.90;;;;;;4851714;29;20041;-80
2023/05/27 00:48:26;;;;;;;15.50;5.63;;;7.30;99.90;;;;;;4852182;29;20048;-80
2023/05/27 00:50:52;;;;;;;18.57;6.10;;;7.30;99.90;;;;;;4844020;29;20108;-80
2023/05/27 00:53:19;;;;;;;19.13;6.70;;;7.30;99.90;;;;;;4850669;29;20124;-85
2023/05/27 00:55:46;;;;;;;18.43;5.57;;;7.20;99.90;;;;;;4844091;29;20450;-84
2023/05/27 00:58:12;;;;;;;19.90;6.63;;;7.20;99.90;;;;;;4843029;29;20049;-85
2023/05/27 01:00:38;;;;;;;19.20;6.00;;;7.20;99.90;;;;;;4831327;29;20063;-84
2023/05/27 01:03:08;;;;;;;17.73;6.30;;;7.20;99.90;;;;;;4831527;29;20051;-85
2023/05/27 01:05:34;;;;;;;16.07;6.30;;;7.20;99.90;;;;;;4846093;29;20567;-85
2023/05/27 01:08:06;;;;;;;15.20;6.03;;;7.20;99.90;;;;;;4845900;29;20124;-80
2023/05/27 01:10:47;;;;;;;22.27;6.72;;;7.20;99.90;;;;;;4849743;29;20076;-79
2023/05/27 01:13:34;;;;;;;16.63;5.90;;;7.20;99.90;;;;;;4863792;29;20041;-79
2023/05/27 01:16:02;;;;;;;19.67;6.20;;;7.20;99.90;;;;;;4864486;29;20051;-80
2023/05/27 01:18:30;;;;;;;14.47;5.93;;;7.20;99.90;;;;;;4841347;29;20051;-80
2023/05/27 01:21:03;;;;;;;14.60;5.83;;;7.10;99.90;;;;;;4840988;29;20055;-80
2023/05/27 01:23:38;;;;;;;20.67;5.93;;;7.00;99.90;;;;;;4862808;29;20044;-79
2023/05/27 01:26:07;;;;;;;21.67;6.20;;;7.00;99.90;;;;;;4816270;29;20125;-80
2023/05/27 01:28:34;;;;;;;19.97;6.67;;;7.00;99.90;;;;;;4845866;29;20049;-80
2023/05/27 01:31:19;;;;;;;15.00;6.07;;;7.00;99.90;;;;;;4855184;29;20125;-80
2023/05/27 01:33:55;;;;;;;20.20;6.53;;;7.10;99.90;;;;;;4875288;29;20040;-80
2023/05/27 01:36:24;;;;;;;19.03;6.20;;;7.00;99.90;;;;;;4839796;29;20076;-79
2023/05/27 01:38:51;;;;;;;14.60;6.33;;;7.00;99.90;;;;;;4857430;29;20124;-80
2023/05/27 01:41:18;;;;;;;19.60;7.17;;;6.90;99.90;;;;;;4855342;29;20396;-80
2023/05/27 01:43:44;;;;;;;15.03;6.50;;;6.90;99.90;;;;;;4838213;29;20073;-80
2023/05/27 01:46:14;;;;;;;16.17;6.20;;;6.90;99.90;;;;;;4847118;29;20141;-80
2023/05/27 01:48:39;;;;;;;21.67;7.20;;;6.80;99.90;;;;;;4843790;29;20047;-80
2023/05/27 01:51:06;;;;;;;18.17;6.83;;;6.80;99.90;;;;;;4841682;29;20503;-80
2023/05/27 01:53:32;;;;;;;17.40;6.30;;;6.70;99.90;;;;;;4848982;29;20051;-79
2023/05/27 01:55:58;;;;;;;22.87;6.87;;;6.80;99.90;;;;;;4854948;29;20057;-79
2023/05/27 01:58:24;;;;;;;21.50;7.53;;;6.80;99.90;;;;;;4826935;29;20057;-80
2023/05/27 02:00:50;;;;;;;16.07;6.73;;;6.90;99.90;;;;;;4831191;29;20056;-80
2023/05/27 02:03:18;;;;;;;22.97;7.77;;;6.90;99.90;;;;;;4845543;29;20052;-86
2023/05/27 02:05:48;;;;;;;16.07;6.50;;;6.90;99.90;;;;;;4830542;29;20049;-85
2023/05/27 02:08:13;;;;;;;14.63;5.70;;;6.90;99.90;;;;;;4844685;29;20147;-86
2023/05/27 02:10:39;;;;;;;19.00;6.30;;;6.90;99.90;;;;;;4863718;29;20128;-85
2023/05/27 02:13:05;;;;;;;22.90;7.23;;;6.80;99.90;;;;;;4848745;29;20477;-85
2023/05/27 02:15:40;;;;;;;17.93;6.63;;;6.80;99.90;;;;;;4849799;29;20052;-85
2023/05/27 02:18:06;;;;;;;19.00;6.77;;;6.70;99.90;;;;;;4852157;29;20072;-85
2023/05/27 02:20:32;;;;;;;21.40;7.07;;;6.70;99.90;;;;;;4839478;29;20100;-85
2023/05/27 02:23:04;;;;;;;18.33;6.93;;;6.80;99.90;;;;;;4848972;29;20041;-85
2023/05/27 02:25:30;;;;;;;21.83;6.82;;;6.80;99.90;;;;;;4847733;29;20048;-84
2023/05/27 02:28:02;;;;;;;19.27;6.63;;;6.90;99.90;;;;;;4846794;29;20081;-84
2023/05/27 02:30:31;;;;;;;22.17;7.07;;;6.90;99.90;;;;;;4832225;29;20048;-85
2023/05/27 02:32:57;;;;;;;17.43;6.70;;;6.90;99.90;;;;;;4864126;29;20044;-85
2023/05/27 02:35:23;;;;;;;20.87;6.90;;;6.90;99.90;;;;;;4855271;29;20045;-85
2023/05/27 02:37:51;;;;;;;22.17;7.50;;;6.90;99.90;;;;;;4833261;29;20060;-85
2023/05/27 02:40:28;;;;;;;16.53;6.13;;;6.90;99.90;;;;;;4819970;29;20052;-86
2023/05/27 02:42:55;;;;;;;19.90;6.50;;;7.00;99.90;;;;;;4815122;29;20136;-86
2023/05/27 02:45:20;;;;;;;17.80;6.77;;;7.00;99.90;;;;;;4825883;29;20045;-85
2023/05/27 02:47:46;;;;;;;16.93;6.43;;;7.00;99.90;;;;;;4848662;29;20128;-85
2023/05/27 02:50:15;;;;;;;20.60;6.53;;;7.10;99.90;;;;;;4830018;29;20064;-84
2023/05/27 02:52:40;;;;;;;17.93;6.27;;;7.20;99.90;;;;;;4872535;29;20556;-84
2023/05/27 02:55:07;;;;;;;14.07;5.87;;;7.20;99.90;;;;;;4841698;29;20139;-85
2023/05/27 02:57:33;;;;;;;17.00;6.00;;;7.20;99.90;;;;;;4867128;29;20052;-85
2023/05/27 02:59:59;;;;;;;15.87;6.57;;;7.30;99.90;;;;;;4866000;29;20052;-85
2023/05/27 03:02:25;;;;;;;22.70;7.67;;;7.20;99.90;;;;;;4848105;29;20113;-84
2023/05/27 03:04:55;;;;;;;16.90;6.30;;;7.10;99.90;;;;;;4861174;29;20080;-85
2023/05/27 03:07:21;;;;;;;20.33;6.57;;;7.20;99.90;;;;;;4852203;29;20049;-84
2023/05/27 03:09:50;;;;;;;19.67;7.47;;;7.20;99.90;;;;;;4835833;29;20464;-80
2023/05/27 03:12:16;;;;;;;19.13;7.73;;;7.20;99.90;;;;;;4866188;29;20040;-80
2023/05/27 03:14:41;;;;;;;18.27;7.37;;;7.20;99.90;;;;;;4850149;29;20045;-80
2023/05/27 03:17:10;;;;;;;21.70;7.63;;;7.30;99.90;;;;;;4831864;29;20051;-79
2023/05/27 03:19:37;;;;;;;21.43;6.90;;;7.30;99.90;;;;;;4848287;29;20084;-79
2023/05/27 03:22:06;;;;;;;18.10;7.27;;;7.30;99.90;;;;;;4829309;29;20055;-80
2023/05/27 03:24:33;;;;;;;21.60;8.10;;;7.40;99.90;;;;;;4849432;29;20049;-80
2023/05/27 03:27:01;;;;;;;23.47;7.00;;;7.40;99.90;;;;;;4818023;29;20068;-79
2023/05/27 03:29:26;;;;;;;21.97;7.27;;;7.40;99.90;;;;;;4876468;29;20735;-79
2023/05/27 03:31:53;;;;;;;23.73;7.53;;;7.40;99.90;;;;;;4823412;29;20189;-86
2023/05/27 03:34:21;;;;;;;22.43;6.97;;;7.50;99.90;;;;;;4813686;29;20061;-86
2023/05/27 03:36:47;;;;;;;21.90;7.63;;;7.50;99.90;;;;;;4835157;29;20045;-85
2023/05/27 03:39:13;;;;;;;20.43;6.80;;;7.60;99.90;;;;;;4845630;29;20051;-85
2023/05/27 03:41:39;;;;;;;23.10;6.77;;;7.50;99.90;;;;;;4850281;29;20048;-85
2023/05/27 03:44:05;;;;;;;22.37;6.93;;;7.50;99.90;;;;;;4865642;29;20040;-84
2023/05/27 03:46:31;;;;;;;20.13;6.63;;;7.60;99.90;;;;;;4850235;29;20037;-85
2023/05/27 03:48:57;;;;;;;17.50;6.93;;;7.60;99.90;;;;;;4874151;29;20090;-85
2023/05/27 03:51:25;;;;;;;24.80;7.60;;;7.60;99.90;;;;;;4832781;29;20061;-85
2023/05/27 03:53:54;;;;;;;14.97;6.53;;;7.60;99.90;;;;;;4833237;29;20045;-86
2023/05/27 03:56:31;;;;;;;17.20;7.13;;;7.60;99.90;;;;;;4866061;29;20508;-85
2023/05/27 03:58:56;;;;;;;22.80;7.60;;;7.60;99.90;;;;;;4841597;29;20108;-86
2023/05/27 04:01:22;;;;;;;18.87;6.77;;;7.60;99.90;;;;;;4865833;29;20052;-85
2023/05/27 04:03:51;;;;;;;21.33;7.37;;;7.70;99.90;;;;;;4880948;29;20048;-80
2023/05/27 04:06:23;;;;;;;22.27;7.40;;;7.70;99.90;;;;;;4865029;29;20045;-79
2023/05/27 04:08:57;;;;;;;22.08;7.45;;;7.80;99.90;;;;;;4846802;29;20053;-80
2023/05/27 04:11:32;;;;;;;16.63;6.90;;;7.80;99.90;;;;;;4847015;29;20037;-80
2023/05/27 04:14:06;;;;;;;24.80;7.40;;;8.00;99.90;;;;;;4847342;29;20112;-80
2023/05/27 04:16:42;;;;;;;17.77;7.30;;;8.00;99.90;;;;;;4845097;29;20485;-80
2023/05/27 04:19:35;;;;;;;16.77;7.07;;;8.10;99.90;;;;;;4845361;29;20049;-79
2023/05/27 04:22:01;;;;;;;25.47;7.00;;;8.10;99.90;;;;;;4841314;29;20045;-85
2023/05/27 04:24:26;;;;;;;19.47;6.90;;;8.20;99.90;;;;;;4855768;29;20051;-84
2023/05/27 04:26:55;;;;;;;20.67;6.83;;;8.30;99.90;;;;;;4873182;29;20048;-85
2023/05/27 04:29:22;;;;;;;19.67;6.87;;;8.30;99.90;;;;;;4854499;29;20045;-85
2023/05/27 04:31:48;;;;;;;19.30;7.33;;;8.30;99.90;;;;;;4846765;29;20096;-85
2023/05/27 04:34:20;;;;;;;20.43;6.40;;;8.30;99.90;;;;;;4847254;29;20043;-85
2023/05/27 04:36:51;;;;;;;22.77;7.93;;;8.40;99.90;;;;;;4874120;29;20040;-85
2023/05/27 04:39:17;;;;;;;16.73;6.37;;;8.40;99.90;;;;;;4846574;29;20044;-83
2023/05/27 04:41:44;;;;;;;18.73;7.03;;;8.40;99.90;;;;;;4877127;29;20384;-80
2023/05/27 04:44:11;;;;;;;19.63;7.10;;;8.50;99.90;;;;;;4865999;29;20120;-80
2023/05/27 04:46:43;;;;;;;21.33;7.17;;;8.50;99.90;;;;;;4861799;29;20101;-81
2023/05/27 04:49:10;;;;;;;19.52;7.32;;;8.50;99.90;;;;;;4834905;29;20475;-80
2023/05/27 04:51:38;;;;;;;19.23;6.73;;;8.60;99.90;;;;;;4849374;29;20055;-80
2023/05/27 04:54:05;;;;;;;20.80;6.20;;;8.60;99.90;;;;;;4852482;29;20127;-81
2023/05/27 04:56:31;;;;;;;31.40;7.73;;;8.60;99.90;;;;;;4844231;29;20513;-80
2023/05/27 04:59:00;;;;;;;22.60;7.20;;;8.70;99.90;;;;;;4823913;29;20496;-84
2023/05/27 05:01:27;;;;;;;21.27;7.43;;;8.70;99.90;;;;;;4846271;29;20047;-84
2023/05/27 05:04:03;;;;;;;17.57;6.83;;;8.80;99.90;;;;;;4849948;29;20040;-83
2023/05/27 05:06:30;;;;;;;24.70;7.60;;;8.90;99.90;;;;;;4852854;29;20041;-85
2023/05/27 05:08:56;;;;;;;16.63;6.87;;;8.90;99.90;;;;;;4829466;29;20049;-83
2023/05/27 05:11:22;;;;;;;24.40;7.53;;;9.00;99.90;;;;;;4842005;29;20099;-84
2023/05/27 05:13:48;;;;;;;18.33;6.43;;;9.10;99.90;;;;;;4855392;29;20132;-83
2023/05/27 05:16:13;;;;;;;27.07;7.67;;;9.10;99.90;;;;;;4849335;29;20700;-84
2023/05/27 05:18:39;;;;;;;16.00;6.23;;;9.10;99.90;;;;;;4833879;29;20049;-84
2023/05/27 05:21:05;;;;;;;22.97;6.20;;;9.10;99.90;;;;;;4842335;29;20389;-83
2023/05/27 05:23:31;;;;;;;17.40;6.37;;;9.20;99.90;;;;;;4845940;29;20111;-84
2023/05/27 05:26:05;;;;;;;23.30;7.30;;;9.20;99.90;;;;;;4830963;29;20053;-83
2023/05/27 05:28:32;;;;;;;18.27;6.23;;;9.20;99.90;;;;;;4857732;29;20037;-85
2023/05/27 05:30:59;;;;;;;22.33;7.10;;;9.20;99.90;;;;;;4840143;29;20044;-83
2023/05/27 05:33:25;;;;;;;22.83;7.63;;;9.30;99.90;;;;;;4833318;29;20044;-81
2023/05/27 05:35:51;;;;;;;17.33;7.50;;;9.30;99.90;;;;;;4841102;29;20409;-79
2023/05/27 05:38:17;;;;;;;23.53;7.73;;;9.30;99.90;;;;;;4845610;29;20045;-80
2023/05/27 05:40:48;;;;;;;16.53;5.83;;;9.30;99.90;;;;;;4824147;29;20053;-80
2023/05/27 05:43:14;;;;;;;23.73;7.30;;;9.30;99.90;;;;;;4863553;29;20067;-80
2023/05/27 05:45:40;;;;;;;22.13;7.20;;;9.30;99.90;;;;;;4844205;29;20504;-81
2023/05/27 05:48:09;;;;;;;16.77;6.53;;;9.30;99.90;;;;;;4840430;29;20517;-80
2023/05/27 05:50:38;;;;;;;25.30;7.47;;;9.30;99.90;;;;;;4837318;29;20045;-80
2023/05/27 05:53:04;;;;;;;18.17;7.30;;;9.30;99.90;;;;;;4821268;29;20053;-80
2023/05/27 05:55:30;;;;;;;18.60;7.50;;;9.30;99.90;;;;;;4866245;29;20041;-80
2023/05/27 05:57:56;;;;;;;23.00;8.00;;;9.30;99.90;;;;;;4815799;29;20052;-80
2023/05/27 06:00:23;;;;;;;21.53;6.90;;;9.30;99.90;;;;;;4821543;29;20064;-80
2023/05/27 06:02:50;;;;;;;19.43;7.37;;;9.30;99.90;;;;;;4833212;29;20584;-80
2023/05/27 06:05:25;;;;;;;17.20;7.27;;;9.20;99.90;;;;;;4820315;29;20421;-80
2023/05/27 06:07:52;;;;;;;19.43;7.63;;;9.30;99.90;;;;;;4820191;29;20554;-80
2023/05/27 06:10:18;;;;;;;21.73;7.83;;;9.50;99.90;;;;;;4815025;29;20045;-80
2023/05/27 06:12:43;;;;;;;24.20;7.70;;;9.70;99.90;;;;;;4833881;29;20044;-80
2023/05/27 06:15:09;;;;;;;18.27;7.70;;;9.90;99.90;;;;;;4843602;29;20103;-81
2023/05/27 06:17:35;;;;;;;15.73;6.97;;;10.20;99.90;;;;;;4859805;29;20445;-81
2023/05/27 06:20:01;;;;;;;26.07;7.27;;;10.40;99.90;;;;;;4851283;29;20048;-80
2023/05/27 06:22:27;;;;;;;19.27;6.93;;;10.70;99.90;;;;;;4850769;29;20053;-81
2023/05/27 06:24:53;;;;;;;15.40;6.30;;;10.80;99.90;;;;;;4876862;29;20147;-80
2023/05/27 06:27:22;;;;;;;22.57;6.80;;;11.00;99.90;;;;;;4867114;29;20037;-81
2023/05/27 06:29:49;;;;;;;21.47;6.50;;;11.20;99.90;;;;;;4851327;29;20128;-81
2023/05/27 06:32:15;;;;;;;17.03;6.03;;;11.30;99.90;;;;;;4835387;29;20045;-80
2023/05/27 06:34:46;;;;;;;17.57;6.37;;;11.50;99.90;;;;;;4833673;29;20139;-81
2023/05/27 06:37:12;;;;;;;21.02;6.32;;;11.50;99.90;;;;;;4849212;29;20049;-84
2023/05/27 06:39:41;;;;;;;20.43;6.73;;;11.70;99.90;;;;;;4849863;29;20181;-83
2023/05/27 06:42:07;;;;;;;17.47;6.23;;;11.80;99.90;;;;;;4862821;29;20138;-85
2023/05/27 06:44:33;;;;;;;25.70;6.90;;;11.80;99.90;;;;;;4849204;29;20044;-84
2023/05/27 06:47:01;;;;;;;21.30;6.57;;;11.80;99.90;;;;;;4833430;29;20191;-84
2023/05/27 06:49:40;;;;;;;21.00;6.03;;;12.00;99.90;;;;;;4839873;29;20061;-85
2023/05/27 06:52:07;;;;;;;18.63;6.10;;;12.10;99.90;;;;;;4867178;29;20048;-82
2023/05/27 06:54:33;;;;;;;19.17;6.37;;;12.20;99.90;;;;;;4867004;29;20052;-83
2023/05/27 06:56:59;;;;;;;13.73;5.47;;;12.20;99.90;;;;;;4865452;29;20053;-83
2023/05/27 06:59:24;;;;;;;19.80;6.10;;;12.20;99.90;;;;;;4848521;29;20049;-84
2023/05/27 07:01:50;;;;;;;18.47;6.30;;;12.30;99.90;;;;;;4822329;29;20127;-84
2023/05/27 07:04:16;;;;;;;18.00;5.53;;;12.50;99.90;;;;;;4847224;29;20120;-85
2023/05/27 07:06:43;;;;;;;17.40;6.23;;;12.70;99.90;;;;;;4848244;29;20055;-84
2023/05/27 07:09:11;;;;;;;17.93;5.90;;;12.70;99.90;;;;;;4851263;29;20049;-85
2023/05/27 07:11:45;;;;;;;18.23;6.60;;;12.70;99.90;;;;;;4863803;29;20047;-84
2023/05/27 07:14:11;;;;;;;16.00;5.67;;;12.90;99.90;;;;;;4841988;29;20037;-84
2023/05/27 07:16:37;;;;;;;19.52;5.95;;;13.00;99.90;;;;;;4850724;29;20132;-84
2023/05/27 07:19:05;;;;;;;14.30;5.97;;;13.00;99.90;;;;;;4832504;29;20080;-84
2023/05/27 07:21:31;;;;;;;24.23;6.10;;;12.90;99.90;;;;;;4862617;29;20044;-84
2023/05/27 07:24:02;;;;;;;18.77;5.60;;;13.00;99.90;;;;;;4866525;29;20459;-84
2023/05/27 07:26:29;;;;;;;19.67;6.20;;;13.00;99.90;;;;;;4848418;29;20522;-84
2023/05/27 07:28:57;;;;;;;17.38;6.45;;;13.30;99.90;;;;;;4848059;29;20045;-82
2023/05/27 07:31:29;;;;;;;19.30;5.05;;;13.40;99.90;;;;;;4848636;29;20045;-82
2023/05/27 07:33:55;;;;;;;19.77;5.32;;;13.60;99.90;;;;;;4863447;29;20037;-81
2023/05/27 07:36:27;;;;;;;17.20;5.32;;;13.70;99.90;;;;;;4833983;29;20153;-81
2023/05/27 07:38:53;;;;;;;14.57;4.60;;;13.80;99.90;;;;;;4831941;29;20402;-80
2023/05/27 07:41:20;;;;;;;15.90;5.07;;;13.90;99.90;;;;;;4848467;29;20049;-82
2023/05/27 07:43:57;;;;;;;15.45;5.00;;;13.90;99.90;;;;;;4866895;29;20077;-82
2023/05/27 07:46:25;;;;;;;13.25;5.32;;;14.00;99.90;;;;;;4845338;29;20485;-81
2023/05/27 07:48:51;;;;;;;20.20;5.78;;;14.00;99.90;;;;;;4872232;29;20133;-80
2023/05/27 07:51:17;;;;;;;12.50;5.00;;;14.00;99.90;;;;;;4870281;29;20127;-83
2023/05/27 07:53:43;;;;;;;14.63;5.15;;;14.00;99.90;;;;;;4854157;29;20570;-81
2023/05/27 07:56:09;;;;;;;12.90;5.60;;;14.10;99.90;;;;;;4865709;29;20132;-84
2023/05/27 07:58:35;;;;;;;12.45;4.75;;;14.20;99.90;;;;;;4847401;29;20052;-82
2023/05/27 08:01:01;;;;;;;15.98;5.65;;;14.30;99.90;;;;;;4838680;29;20048;-83
2023/05/27 08:03:27;;;;;;;15.07;5.45;;;14.50;99.90;;;;;;4855636;29;20098;-82
2023/05/27 08:06:00;;;;;;;13.45;5.32;;;14.80;99.90;;;;;;4866953;29;20045;-82
2023/05/27 08:08:26;;;;;;;13.93;4.82;;;15.10;99.90;;;;;;4846793;29;20486;-84
2023/05/27 08:10:52;;;;;;;14.82;5.32;;;15.20;99.90;;;;;;4863003;29;20045;-84
2023/05/27 08:13:17;;;;;;;15.35;5.72;;;15.20;99.90;;;;;;4863878;29;20033;-84
2023/05/27 08:15:43;;;;;;;14.70;4.60;;;15.20;99.90;;;;;;4849770;29;20129;-83
2023/05/27 08:18:09;;;;;;;14.18;5.00;;;15.40;99.90;;;;;;4847871;29;20041;-84
2023/05/27 08:20:35;;;;;;;17.40;5.43;;;15.60;99.90;;;;;;4877470;29;20136;-83
2023/05/27 08:23:01;;;;;;;16.13;5.00;;;15.80;99.90;;;;;;4857777;29;20056;-85
2023/05/27 08:25:30;;;;;;;14.35;5.75;;;15.90;99.90;;;;;;4880583;29;20045;-83
2023/05/27 08:28:01;;;;;;;14.48;5.70;;;15.80;99.90;;;;;;4880073;29;20041;-81
2023/05/27 08:30:30;;;;;;;16.63;5.70;;;15.90;99.90;;;;;;4881160;29;20040;-83
2023/05/27 08:33:00;;;;;;;14.60;5.50;;;16.00;99.90;;;;;;4878825;29;20045;-84
2023/05/27 08:35:29;;;;;;;17.67;5.88;;;16.10;99.90;;;;;;4889879;29;20085;-84
2023/05/27 08:37:55;;;;;;;15.52;5.57;;;16.10;99.90;;;;;;4880596;29;20481;-84
2023/05/27 08:40:21;;;;;;;17.73;5.60;;;16.10;99.90;;;;;;4872749;29;20059;-81
2023/05/27 08:42:48;;;;;;;15.40;5.43;;;16.10;99.90;;;;;;4845307;29;20642;-84
2023/05/27 08:45:14;;;;;;;14.82;5.38;;;16.30;99.90;;;;;;4861320;29;20104;-84
2023/05/27 08:47:41;;;;;;;14.38;5.03;;;16.30;99.90;;;;;;4861488;29;20041;-84
2023/05/27 08:50:07;;;;;;;15.90;5.18;;;16.40;99.90;;;;;;4846268;29;20501;-81
2023/05/27 08:52:36;;;;;;;15.95;5.65;;;16.50;99.90;;;;;;4846269;29;20094;-81
2023/05/27 08:55:03;;;;;;;17.92;6.05;;;16.60;99.90;;;;;;4877724;29;20059;-83
2023/05/27 08:57:31;;;;;;;15.65;6.10;;;16.80;99.90;;;;;;4835992;29;20044;-81
2023/05/27 09:00:01;;;;;;;13.15;5.00;;;17.00;99.90;;;;;;4861366;29;20049;-81
2023/05/27 09:02:39;;;;;;;14.07;5.32;;;17.10;99.90;;;;;;4864464;29;20064;-83
2023/05/27 09:05:09;;;;;;;13.82;5.80;;;17.20;99.90;;;;;;4870481;29;20045;-81
2023/05/27 09:07:36;;;;;;;15.93;5.25;;;17.30;99.90;;;;;;4856469;29;20057;-80
2023/05/27 09:10:02;;;;;;;14.40;6.35;;;17.40;99.90;;;;;;4849098;29;20507;-80
2023/05/27 09:12:31;;;;;;;19.67;5.72;;;17.40;99.90;;;;;;4861481;29;20041;-80
2023/05/27 09:15:00;;;;;;;14.75;6.13;;;17.30;99.90;;;;;;4864029;29;20812;-82
2023/05/27 09:17:26;;;;;;;19.00;6.30;;;17.00;99.90;;;;;;4837920;29;20053;-81
2023/05/27 09:20:01;;;;;;;17.33;5.70;;;17.10;99.90;;;;;;4879191;29;20053;-82
2023/05/27 09:22:40;;;;;;;17.75;6.50;;;17.30;99.90;;;;;;4867926;29;20082;-83
2023/05/27 09:25:07;;;;;;;14.35;5.95;;;17.50;99.90;;;;;;4876077;29;20048;-82
2023/05/27 09:27:33;;;;;;;13.77;5.63;;;17.70;99.90;;;;;;4850321;29;20044;-84
2023/05/27 09:30:07;;;;;;;13.18;5.40;;;17.80;99.90;;;;;;4877628;29;20080;-82
2023/05/27 09:32:40;;;;;;;13.73;5.65;;;17.90;99.90;;;;;;4886255;29;20796;-82
2023/05/27 09:35:11;;;;;;;14.95;5.25;;;18.00;99.90;;;;;;4883309;29;20406;-84
2023/05/27 09:37:36;;;;;;;16.25;6.00;;;18.00;99.90;;;;;;4861256;29;20053;-82
2023/05/27 09:40:08;;;;;;;13.57;5.45;;;18.00;99.90;;;;;;4862461;29;20813;-81
2023/05/27 09:42:46;;;;;;;17.42;5.53;;;18.10;99.90;;;;;;4862039;29;20140;-82
2023/05/27 09:45:20;;;;;;;13.48;5.30;;;18.20;99.90;;;;;;4861060;29;20063;-84
2023/05/27 09:48:01;;;;;;;14.45;5.57;;;18.40;99.90;;;;;;4849493;29;20041;-84
2023/05/27 09:50:28;;;;;;;17.08;6.38;;;18.30;99.90;;;;;;4864874;29;20139;-81
2023/05/27 09:52:56;;;;;;;16.30;5.70;;;18.20;99.90;;;;;;4879727;29;20091;-82
2023/05/27 09:55:23;;;;;;;12.10;5.95;;;18.40;99.90;;;;;;4849421;29;20549;-83
2023/05/27 09:57:50;;;;;;;14.50;5.60;;;18.60;99.90;;;;;;4876163;29;20044;-83
2023/05/27 10:00:18;;;;;;;15.90;6.63;;;18.80;99.90;;;;;;4852789;29;20072;-82
2023/05/27 10:02:48;;;;;;;15.90;6.10;;;19.00;99.90;;;;;;4860232;29;20056;-83
2023/05/27 10:05:16;;;;;;;11.80;5.68;;;18.90;99.90;;;;;;4866920;29;20056;-84
2023/05/27 10:07:46;;;;;;;16.05;5.55;;;19.00;99.90;;;;;;4876261;29;20044;-84
2023/05/27 10:10:18;;;;;;;16.48;5.75;;;18.70;99.90;;;;;;4897946;29;20048;-81
2023/05/27 10:12:46;;;;;;;13.60;5.68;;;18.70;99.90;;;;;;4872481;29;20088;-81
2023/05/27 10:15:24;;;;;;;16.63;6.70;;;18.70;99.90;;;;;;4863561;29;20049;-82
2023/05/27 10:17:53;;;;;;;14.80;5.50;;;18.80;99.90;;;;;;4866121;29;20484;-81
2023/05/27 10:20:31;;;;;;;16.23;5.97;;;18.90;99.90;;;;;;4864152;29;20057;-82
2023/05/27 10:23:20;;;;;;;15.23;6.22;;;19.20;99.90;;;;;;4863902;29;20519;-83
2023/05/27 10:25:51;;;;;;;17.50;5.40;;;19.30;99.90;;;;;;4889830;29;20127;-83
2023/05/27 10:28:31;;;;;;;15.23;6.28;;;19.60;99.90;;;;;;4868104;29;20720;-86
2023/05/27 10:31:28;;;;;;;16.08;5.75;;;19.80;99.90;;;;;;4874931;29;20804;-82
2023/05/27 10:33:57;;;;;;;13.70;5.78;;;19.80;99.90;;;;;;4864089;29;20053;-82
2023/05/27 10:36:28;;;;;;;19.15;6.15;;;19.80;99.90;;;;;;4883224;29;20087;-84
2023/05/27 10:38:56;;;;;;;17.17;6.30;;;19.80;99.90;;;;;;4877323;29;20097;-82
2023/05/27 10:41:22;;;;;;;16.15;6.28;;;20.00;99.90;;;;;;4860932;29;20045;-86
2023/05/27 10:44:25;;;;;;;16.80;5.93;;;20.10;99.90;;;;;;4849267;29;20045;-82
2023/05/27 10:47:03;;;;;;;12.15;5.43;;;20.20;99.90;;;;;;4868600;29;20076;-82
2023/05/27 10:49:37;;;;;;;13.23;6.25;;;19.90;99.90;;;;;;4856748;29;20060;-81
2023/05/27 10:52:17;;;;;;;12.40;5.30;;;19.80;99.90;;;;;;4866641;29;20111;-82
2023/05/27 10:54:52;;;;;;;15.18;6.85;;;19.90;95.90;;;;;;4889537;29;20080;-81
2023/05/27 10:57:19;;;;;;;14.95;5.70;;;19.80;99.90;;;;;;4855345;29;20392;-82
2023/05/27 10:59:53;;;;;;;14.75;5.95;;;19.90;99.90;;;;;;4870088;29;20049;-82
2023/05/27 11:02:20;;;;;;;12.02;5.65;;;20.10;99.90;;;;;;4897236;29;20076;-81
2023/05/27 11:04:48;;;;;;;14.43;6.13;;;20.10;98.00;;;;;;4882016;29;20732;-82
2023/05/27 11:07:24;;;;;;;13.00;5.60;;;20.40;99.90;;;;;;4858464;29;20053;-82
2023/05/27 11:09:53;;;;;;;13.45;5.45;;;20.60;90.70;;;;;;4858442;29;20056;-81
2023/05/27 11:12:21;;;;;;;18.02;6.35;;;20.80;95.80;;;;;;4848699;29;20048;-84
2023/05/27 11:14:55;;;;;;;17.45;6.65;;;20.70;93.10;;;;;;4833509;29;20076;-81
2023/05/27 11:17:22;;;;;;;13.52;5.88;;;20.50;92.80;;;;;;4863588;29;20044;-83
2023/05/27 11:19:49;;;;;;;13.00;6.13;;;20.40;97.90;;;;;;4879876;29;20052;-81
2023/05/27 11:22:16;;;;;;;16.58;6.00;;;20.40;96.50;;;;;;4871317;29;20401;-81
2023/05/27 11:24:57;;;;;;;11.82;5.95;;;20.20;96.60;;;;;;4884517;29;20422;-84
2023/05/27 11:27:23;;;;;;;14.65;6.30;;;20.40;90.90;;;;;;4881263;29;20051;-81
2023/05/27 11:29:53;;;;;;;17.25;6.32;;;20.10;94.90;;;;;;4879551;29;20128;-84
2023/05/27 11:32:22;;;;;;;17.73;5.95;;;20.00;94.90;;;;;;4863534;29;20076;-88
2023/05/27 11:34:48;;;;;;;13.20;5.68;;;20.00;95.20;;;;;;4888889;29;20084;-82
2023/05/27 11:37:15;;;;;;;15.13;5.97;;;19.80;90.20;;;;;;4896518;29;20143;-86
2023/05/27 11:39:51;;;;;;;13.50;6.55;;;19.80;92.70;;;;;;4878868;29;20044;-80
2023/05/27 11:42:24;;;;;;;12.73;6.72;;;19.70;87.80;;;;;;4875638;29;20493;-83
2023/05/27 11:44:53;;;;;;;13.55;5.68;;;19.60;90.80;;;;;;4872315;29;20052;-81
2023/05/27 11:47:20;;;;;;;15.18;5.95;;;19.60;93.90;;;;;;4864700;29;20155;-81
2023/05/27 11:49:49;;;;;;;12.68;5.90;;;19.80;96.90;;;;;;4848801;29;20441;-81
2023/05/27 11:52:16;;;;;;;12.65;5.75;;;20.10;96.80;;;;;;4870653;29;20395;-81
2023/05/27 11:54:42;;;;;;;13.95;5.75;;;20.30;94.20;;;;;;4876444;29;20070;-81
2023/05/27 11:57:10;;;;;;;16.02;5.72;;;20.50;91.20;;;;;;4847545;29;20124;-81
2023/05/27 11:59:36;;;;;;;15.63;6.25;;;20.90;91.00;;;;;;4879729;29;20124;-81
2023/05/27 12:02:04;;;;;;;12.35;5.57;;;21.20;81.00;;;;;;4884492;29;20057;-85
2023/05/27 12:04:30;;;;;;;13.30;6.10;;;21.20;78.40;;;;;;4869737;29;20477;-81
2023/05/27 12:07:02;;;;;;;15.98;6.18;;;21.40;80.90;;;;;;4862814;29;20048;-83
2023/05/27 12:09:28;;;;;;;12.60;5.95;;;21.30;75.00;;;;;;4849089;29;20041;-81
2023/05/27 12:11:55;;;;;;;12.00;5.68;;;21.30;77.40;;;;;;4854397;29;20049;-83
2023/05/27 12:14:22;;;;;;;13.18;6.13;;;21.40;78.80;;;;;;4853195;29;20029;-82
2023/05/27 12:16:48;;;;;;;14.48;5.95;;;21.50;76.90;;;;;;4896408;29;20049;-81
2023/05/27 12:19:14;;;;;;;10.70;5.75;;;21.60;76.60;;;;;;4895195;29;20454;-81
2023/05/27 12:21:43;;;;;;;15.45;6.00;;;21.60;75.00;;;;;;4872632;29;20093;-83
2023/05/27 12:24:08;;;;;;;13.10;5.18;;;21.60;75.80;;;;;;4847325;29;20135;-83
2023/05/27 12:26:34;;;;;;;13.82;5.82;;;21.70;73.50;;;;;;4861979;29;20136;-82
2023/05/27 12:29:00;;;;;;;11.68;5.80;;;21.80;70.90;;;;;;4876842;29;20513;-83
2023/05/27 12:31:26;;;;;;;15.68;6.10;;;21.90;70.70;;;;;;4863747;29;20056;-81
2023/05/27 12:33:51;;;;;;;12.10;5.60;;;22.00;68.90;;;;;;4865149;29;20075;-83
2023/05/27 12:36:19;;;;;;;10.50;5.63;;;22.20;69.80;;;;;;4865390;29;20083;-83
2023/05/27 12:38:45;;;;;;;14.52;5.93;;;22.10;68.30;;;;;;4884378;29;20056;-84
2023/05/27 12:41:11;;;;;;;13.02;5.68;;;22.10;68.20;;;;;;4858106;29;20056;-84
2023/05/27 12:43:37;;;;;;;13.23;5.65;;;22.00;68.60;;;;;;4878294;29;20123;-84
2023/05/27 12:46:03;;;;;;;13.40;5.57;;;21.70;68.90;;;;;;4857098;29;20131;-82
2023/05/27 12:48:29;;;;;;;12.90;5.72;;;21.80;68.60;;;;;;4877253;29;20127;-84